Time;durP1;ratioP1;P1;durP2;ratioP2;P2;SDS_P1;SDS_P2;PMS_P1;PMS_P2;Temp;Humidity;BMP_temperature;BMP_pressure;BME280_temperature;BME280_humidity;BME280_pressure;Samples;Min_cycle;Max_cycle;Signal;HPM_P1;HPM_P2
2023/05/05 00:01:34;;;;;;;0.50;0.50;;;18.60;62.40;;;18.88;45.28;95211.91;5075485;28;20190;-54
2023/05/05 00:04:01;;;;;;;0.40;0.40;;;18.60;62.40;;;18.88;45.18;95217.22;5075358;28;20191;-52
2023/05/05 00:06:28;;;;;;;0.50;0.50;;;18.60;62.40;;;18.87;44.77;95208.44;5075439;28;20563;-51
2023/05/05 00:08:55;;;;;;;0.40;0.40;;;18.60;62.40;;;18.85;44.88;95202.56;5075324;28;20190;-53
2023/05/05 00:11:22;;;;;;;0.50;0.50;;;18.60;62.40;;;18.84;45.30;95200.94;5061330;28;20199;-56
2023/05/05 00:13:50;;;;;;;0.60;0.60;;;18.60;62.40;;;18.83;45.41;95201.97;5055436;28;20674;-52
2023/05/05 00:16:17;;;;;;;0.50;0.50;;;18.60;62.30;;;18.83;45.05;95195.84;5055161;28;20305;-52
2023/05/05 00:18:44;;;;;;;0.50;0.50;;;18.60;62.40;;;18.82;45.44;95196.91;5055464;28;20192;-52
2023/05/05 00:21:12;;;;;;;0.50;0.50;;;18.60;62.40;;;18.82;45.24;95195.06;5055199;28;20187;-51
2023/05/05 00:23:39;;;;;;;0.60;0.60;;;18.60;62.40;;;18.81;45.54;95188.13;5054520;28;20251;-51
2023/05/05 00:26:06;;;;;;;0.50;0.50;;;18.50;62.30;;;18.80;45.23;95186.50;5055036;28;20195;-52
2023/05/05 00:28:33;;;;;;;0.50;0.50;;;18.50;62.30;;;18.78;45.66;95177.97;5054455;28;20192;-50
2023/05/05 00:31:00;;;;;;;0.50;0.50;;;18.50;62.30;;;18.78;45.58;95177.16;5055353;28;20199;-53
2023/05/05 00:33:27;;;;;;;0.50;0.50;;;18.50;62.30;;;18.77;45.56;95170.22;5055571;28;20529;-51
2023/05/05 00:35:55;;;;;;;0.40;0.40;;;18.50;62.30;;;18.76;45.79;95174.75;5054865;28;20215;-51
2023/05/05 00:38:22;;;;;;;0.50;0.50;;;18.50;62.30;;;18.75;45.75;95169.66;5054005;28;20196;-54
2023/05/05 00:40:49;;;;;;;0.40;0.40;;;18.50;62.30;;;18.74;45.59;95166.19;5055179;28;20191;-52
2023/05/05 00:43:16;;;;;;;0.60;0.60;;;18.50;62.30;;;18.72;45.35;95155.81;5054063;28;20205;-53
2023/05/05 00:45:46;;;;;;;0.50;0.50;;;18.50;62.30;;;18.69;45.26;95156.28;5055119;28;20211;-53
2023/05/05 00:48:15;;;;;;;0.50;0.50;;;18.40;62.20;;;18.68;45.51;95159.97;5070610;28;20233;-51
2023/05/05 00:50:43;;;;;;;0.50;0.50;;;18.50;62.30;;;18.65;45.28;95155.16;5054814;28;20264;-52
2023/05/05 00:53:11;;;;;;;0.50;0.50;;;18.50;62.20;;;18.60;45.03;95157.69;5054735;28;20516;-52
2023/05/05 00:55:38;;;;;;;0.50;0.50;;;18.50;62.20;;;18.56;44.93;95157.34;5054702;28;20222;-51
2023/05/05 00:58:05;;;;;;;0.50;0.50;;;18.40;62.20;;;18.54;44.75;95151.50;5054736;28;20191;-52
2023/05/05 01:00:32;;;;;;;0.50;0.50;;;18.40;62.20;;;18.51;44.81;95146.63;5053772;28;20195;-50
2023/05/05 01:02:59;;;;;;;0.43;0.43;;;18.30;62.20;;;18.47;45.17;95147.34;5054555;28;20198;-54
2023/05/05 01:05:37;;;;;;;0.50;0.50;;;18.30;62.20;;;18.46;44.77;95141.22;5070397;28;20234;-54
2023/05/05 01:08:26;;;;;;;0.50;0.50;;;18.30;62.20;;;18.42;44.94;95139.28;5037305;28;20199;-54
2023/05/05 01:11:02;;;;;;;0.50;0.50;;;18.30;62.20;;;18.39;45.11;95141.38;5054325;28;20539;-51
2023/05/05 01:13:47;;;;;;;0.55;0.55;;;18.20;62.10;;;18.37;45.45;95138.13;5054338;28;20258;-53
2023/05/05 01:16:24;;;;;;;0.60;0.60;;;18.20;62.10;;;18.37;45.16;95135.47;5053550;28;20215;-51
2023/05/05 01:19:18;;;;;;;0.50;0.50;;;18.20;62.10;;;18.33;45.16;95129.00;5054030;28;20255;-50
2023/05/05 01:21:59;;;;;;;0.50;0.50;;;18.20;62.10;;;18.32;45.17;95134.56;5053419;28;20350;-51
2023/05/05 01:25:10;;;;;;;0.60;0.60;;;18.10;61.90;;;18.29;45.23;95132.41;5054544;28;20179;-51
2023/05/05 01:27:49;;;;;;;0.50;0.50;;;18.10;62.00;;;18.28;45.17;95130.78;5053567;28;20190;-51
2023/05/05 01:30:49;;;;;;;0.40;0.40;;;18.10;62.00;;;18.23;45.52;95129.63;5054442;28;20183;-52
2023/05/05 01:33:24;;;;;;;0.45;0.45;;;18.10;62.00;;;18.24;45.19;95125.13;5054634;28;20180;-51
2023/05/05 01:35:56;;;;;;;0.50;0.50;;;18.10;62.00;;;18.21;45.25;95131.72;5054039;28;20245;-51
2023/05/05 01:38:39;;;;;;;0.50;0.50;;;18.10;62.00;;;18.21;45.83;95134.38;5053818;28;20194;-51
2023/05/05 01:41:18;;;;;;;0.50;0.50;;;18.00;61.90;;;18.20;45.31;95131.94;5055485;28;20194;-53
2023/05/05 01:43:49;;;;;;;0.50;0.50;;;18.10;62.00;;;18.18;45.56;95134.81;5057664;28;20175;-50
2023/05/05 01:46:18;;;;;;;0.50;0.50;;;18.10;62.00;;;18.20;45.83;95140.72;5024477;28;20199;-53
2023/05/05 01:48:47;;;;;;;0.50;0.50;;;18.10;62.00;;;18.20;45.65;95142.56;5057155;28;20701;-53
2023/05/05 01:51:17;;;;;;;0.60;0.60;;;18.10;62.00;;;18.19;45.80;95139.09;5057930;28;20195;-51
2023/05/05 01:53:46;;;;;;;0.50;0.50;;;18.00;61.90;;;18.19;45.82;95136.44;5056931;28;20261;-52
2023/05/05 01:56:14;;;;;;;0.50;0.50;;;18.00;61.90;;;18.20;45.90;95131.94;5058297;28;20211;-51
2023/05/05 01:58:43;;;;;;;0.50;0.50;;;18.00;62.10;;;18.20;45.87;95135.41;5056975;28;20527;-52
2023/05/05 02:01:12;;;;;;;0.50;0.50;;;18.00;62.30;;;18.21;46.20;95125.59;5040324;28;20245;-53
2023/05/05 02:03:40;;;;;;;0.50;0.50;;;18.00;62.30;;;18.21;46.32;95128.25;5056742;28;20202;-52
2023/05/05 02:06:09;;;;;;;0.50;0.50;;;18.00;62.20;;;18.20;46.05;95129.28;5056854;28;20203;-51
2023/05/05 02:08:38;;;;;;;0.50;0.50;;;18.10;62.30;;;18.21;45.99;95128.25;5058192;28;20202;-52
2023/05/05 02:11:08;;;;;;;0.50;0.50;;;18.00;62.40;;;18.21;46.04;95138.84;5073282;28;20195;-51
2023/05/05 02:13:38;;;;;;;0.50;0.50;;;18.10;62.50;;;18.20;46.48;95134.59;5040206;28;20206;-51
2023/05/05 02:16:07;;;;;;;0.57;0.57;;;18.10;62.40;;;18.19;46.03;95133.00;5056599;28;20243;-51
2023/05/05 02:18:35;;;;;;;0.50;0.50;;;18.10;62.20;;;18.17;46.20;95137.72;5056662;28;20257;-56
2023/05/05 02:21:03;;;;;;;0.50;0.50;;;18.00;62.30;;;18.18;46.19;95131.38;5057389;28;20192;-53
2023/05/05 02:23:31;;;;;;;0.50;0.50;;;18.10;62.00;;;18.16;45.95;95134.28;5056244;28;20235;-52
2023/05/05 02:26:06;;;;;;;0.55;0.55;;;18.10;62.10;;;18.15;45.81;95135.31;5056451;28;20239;-53
2023/05/05 02:28:51;;;;;;;0.50;0.50;;;18.00;62.20;;;18.15;45.69;95139.78;5056515;28;20210;-52
2023/05/05 02:31:21;;;;;;;0.50;0.50;;;18.00;62.40;;;18.13;46.28;95131.28;5057488;28;20199;-50
2023/05/05 02:33:52;;;;;;;0.50;0.50;;;18.00;62.30;;;18.12;46.00;95138.41;5023725;28;20231;-52
2023/05/05 02:36:21;;;;;;;0.50;0.50;;;18.00;62.40;;;18.12;46.01;95137.63;5057043;28;20281;-52
2023/05/05 02:39:00;;;;;;;0.50;0.50;;;18.00;62.50;;;18.11;46.00;95128.03;5056998;28;20202;-52
2023/05/05 02:41:32;;;;;;;0.60;0.60;;;18.00;62.60;;;18.11;46.16;95131.50;5040169;28;20547;-53
2023/05/05 02:44:04;;;;;;;0.50;0.50;;;18.00;62.50;;;18.11;46.29;95120.06;5057042;28;20633;-52
2023/05/05 02:46:33;;;;;;;0.60;0.60;;;18.00;62.50;;;18.10;46.10;95127.22;5056405;28;20211;-52
2023/05/05 02:49:00;;;;;;;0.50;0.50;;;18.00;62.60;;;18.11;46.45;95131.50;5055944;28;20205;-52
2023/05/05 02:51:28;;;;;;;0.50;0.50;;;18.00;62.60;;;18.09;46.65;95122.97;5055451;28;20253;-52
2023/05/05 02:53:59;;;;;;;0.50;0.50;;;18.00;62.60;;;18.10;46.78;95118.47;5072158;28;20223;-51
2023/05/05 02:56:46;;;;;;;0.57;0.57;;;17.90;62.60;;;18.07;46.41;95127.69;5056621;28;20667;-51
2023/05/05 02:59:49;;;;;;;0.50;0.50;;;17.90;62.60;;;18.01;46.25;95118.81;5055895;28;20218;-52
2023/05/05 03:02:34;;;;;;;0.50;0.50;;;17.90;62.60;;;18.03;46.19;95127.34;5056021;28;20688;-52
2023/05/05 03:05:10;;;;;;;0.50;0.50;;;17.90;62.70;;;18.00;46.53;95127.81;5055611;28;20217;-50
2023/05/05 03:08:03;;;;;;;0.50;0.50;;;17.90;62.30;;;17.99;45.96;95131.53;5055617;28;20218;-54
2023/05/05 03:10:45;;;;;;;0.50;0.50;;;17.90;62.20;;;17.94;46.04;95139.31;5055949;28;20515;-51
2023/05/05 03:13:16;;;;;;;0.50;0.50;;;17.90;61.80;;;17.91;46.15;95139.81;5039298;28;20249;-53
2023/05/05 03:15:52;;;;;;;0.50;0.50;;;17.90;62.00;;;17.91;45.83;95145.13;5055614;28;20264;-51
2023/05/05 03:18:24;;;;;;;0.60;0.60;;;17.90;62.20;;;17.89;45.84;95147.19;5039345;28;20199;-53
2023/05/05 03:21:07;;;;;;;0.50;0.50;;;17.80;62.20;;;17.87;45.77;95149.25;5040211;28;20199;-59
2023/05/05 03:23:36;;;;;;;0.50;0.50;;;17.80;62.20;;;17.86;46.46;95158.28;5039577;28;20613;-52
2023/05/05 03:26:08;;;;;;;0.30;0.30;;;17.80;62.30;;;17.80;46.08;95146.72;5055288;28;20205;-53
2023/05/05 03:28:39;;;;;;;0.50;0.50;;;17.70;62.20;;;17.83;46.23;95156.88;5056932;28;20538;-53
2023/05/05 03:31:14;;;;;;;0.50;0.50;;;17.70;62.30;;;17.83;45.93;95154.22;5055187;28;20240;-53
2023/05/05 03:33:41;;;;;;;0.50;0.50;;;17.70;62.50;;;17.83;46.16;95164.03;5055140;28;20292;-53
2023/05/05 03:36:09;;;;;;;0.50;0.50;;;17.70;62.50;;;17.82;46.31;95154.44;5055950;28;20276;-52
2023/05/05 03:38:38;;;;;;;0.50;0.50;;;17.70;62.60;;;17.79;46.58;95150.41;5038825;28;20200;-52
2023/05/05 03:41:05;;;;;;;0.50;0.50;;;17.70;62.70;;;17.81;46.33;95158.13;5056165;28;20214;-53
2023/05/05 03:43:32;;;;;;;0.50;0.50;;;17.70;62.70;;;17.82;46.82;95159.75;5054873;28;20627;-54
2023/05/05 03:46:00;;;;;;;0.50;0.50;;;17.70;62.80;;;17.81;46.45;95152.84;5056587;28;20195;-50
2023/05/05 03:48:27;;;;;;;0.50;0.50;;;17.70;62.70;;;17.81;46.61;95158.13;5055185;28;20528;-52
2023/05/05 03:50:55;;;;;;;0.50;0.50;;;17.70;62.80;;;17.80;46.68;95157.34;5071440;28;20582;-56
2023/05/05 03:53:24;;;;;;;0.60;0.60;;;17.70;62.80;;;17.80;46.61;95162.66;5054708;28;20704;-53
2023/05/05 03:55:51;;;;;;;0.50;0.50;;;17.70;62.80;;;17.81;46.71;95169.56;5054496;28;20215;-52
2023/05/05 03:58:18;;;;;;;0.50;0.50;;;17.70;62.80;;;17.80;46.53;95162.66;5054616;28;20195;-55
2023/05/05 04:00:45;;;;;;;0.60;0.60;;;17.70;62.70;;;17.80;47.05;95167.13;5054966;28;20591;-51
2023/05/05 04:03:12;;;;;;;0.50;0.50;;;17.70;62.70;;;17.80;46.89;95173.25;5071127;28;20191;-50
2023/05/05 04:05:39;;;;;;;0.50;0.50;;;17.70;62.80;;;17.79;46.70;95169.00;5055483;28;20191;-52
2023/05/05 04:08:06;;;;;;;0.50;0.50;;;17.70;62.80;;;17.79;46.78;95162.88;5038026;28;20257;-51
2023/05/05 04:10:34;;;;;;;0.60;0.60;;;17.70;62.90;;;17.80;46.56;95169.78;5054429;28;20199;-51
2023/05/05 04:13:01;;;;;;;0.50;0.50;;;17.70;62.90;;;17.79;46.82;95170.84;5054513;28;20539;-52
2023/05/05 04:15:30;;;;;;;0.70;0.70;;;17.70;63.00;;;17.79;46.92;95170.84;5054380;28;20213;-53
2023/05/05 04:17:57;;;;;;;0.50;0.50;;;17.70;63.00;;;17.79;47.13;95165.53;5055526;28;20607;-54
2023/05/05 04:20:26;;;;;;;0.50;0.50;;;17.70;63.00;;;17.78;46.53;95170.03;5071550;28;20256;-53
2023/05/05 04:22:55;;;;;;;0.60;0.60;;;17.70;62.70;;;17.76;46.91;95164.97;5071218;28;20246;-55
2023/05/05 04:25:22;;;;;;;0.50;0.50;;;17.70;62.70;;;17.75;46.95;95179.25;5054525;28;20195;-50
2023/05/05 04:27:50;;;;;;;0.60;0.60;;;17.70;62.80;;;17.73;47.04;95167.25;5054194;28;20268;-52
2023/05/05 04:30:17;;;;;;;0.50;0.50;;;17.70;62.80;;;17.74;47.15;95166.22;5037654;28;20192;-54
2023/05/05 04:32:44;;;;;;;0.50;0.50;;;17.70;62.90;;;17.74;46.75;95174.97;5054590;28;20207;-52
2023/05/05 04:35:12;;;;;;;0.57;0.57;;;17.70;63.00;;;17.76;46.73;95172.13;5037562;28;20227;-54
2023/05/05 04:37:39;;;;;;;0.50;0.50;;;17.70;63.00;;;17.76;47.06;95177.44;5053967;28;20595;-53
2023/05/05 04:40:08;;;;;;;0.40;0.40;;;17.70;63.10;;;17.74;47.45;95177.63;5070722;28;20634;-56
2023/05/05 04:42:37;;;;;;;0.50;0.50;;;17.70;63.10;;;17.75;46.89;95179.25;5037725;28;20286;-52
2023/05/05 04:45:05;;;;;;;0.43;0.43;;;17.70;63.10;;;17.75;47.36;95181.91;5053839;28;20227;-52
2023/05/05 04:47:39;;;;;;;0.50;0.50;;;17.70;63.10;;;17.75;47.38;95189.88;5037524;28;20546;-51
2023/05/05 04:50:08;;;;;;;0.50;0.50;;;17.70;63.20;;;17.74;47.33;95185.59;5055148;28;20183;-52
2023/05/05 04:52:35;;;;;;;0.50;0.50;;;17.70;63.20;;;17.75;47.24;95189.06;5054790;28;20592;-57
2023/05/05 04:55:03;;;;;;;0.50;0.50;;;17.70;63.10;;;17.76;47.04;95190.69;5053731;28;20207;-54
2023/05/05 04:57:32;;;;;;;0.52;0.52;;;17.70;63.20;;;17.75;47.25;95192.53;5054189;28;20215;-55
2023/05/05 05:00:00;;;;;;;0.50;0.50;;;17.70;63.20;;;17.76;47.15;95196.00;5055846;28;20241;-55
2023/05/05 05:02:27;;;;;;;0.50;0.50;;;17.70;63.20;;;17.75;47.35;95197.03;5058997;28;20599;-56
2023/05/05 05:04:54;;;;;;;0.50;0.50;;;17.70;63.20;;;17.76;47.45;95196.78;5060244;28;20196;-54
2023/05/05 05:07:21;;;;;;;0.50;0.50;;;17.70;63.20;;;17.76;47.49;95207.41;5067531;28;20712;-52
2023/05/05 05:09:49;;;;;;;0.50;0.50;;;17.70;63.10;;;17.77;47.13;95208.19;5053702;28;20290;-53
2023/05/05 05:12:17;;;;;;;0.50;0.50;;;17.70;63.10;;;17.75;47.09;95208.44;5055989;28;20279;-56
2023/05/05 05:14:44;;;;;;;0.50;0.50;;;17.70;63.10;;;17.76;47.00;95212.72;5067535;28;20204;-56
2023/05/05 05:17:11;;;;;;;0.55;0.55;;;17.70;63.10;;;17.77;47.05;95216.16;5074224;28;20230;-53
2023/05/05 05:19:38;;;;;;;0.50;0.50;;;17.70;63.10;;;17.76;47.09;95210.06;5064765;28;20199;-56
2023/05/05 05:22:05;;;;;;;0.50;0.50;;;17.70;63.10;;;17.76;47.52;95211.91;5060615;28;20557;-55
2023/05/05 05:24:36;;;;;;;0.43;0.43;;;17.70;63.10;;;17.76;47.41;95217.22;5068808;28;20206;-53
2023/05/05 05:27:06;;;;;;;0.60;0.60;;;17.70;63.00;;;17.77;46.94;95213.50;5072256;28;20235;-58
2023/05/05 05:29:36;;;;;;;0.50;0.50;;;17.70;63.00;;;17.75;46.56;95212.94;5068079;28;20290;-58
